createdAt,value
2019-06-07T00:03:29.045Z,55.89
2019-06-07T00:08:38.830Z,55.88
2019-06-07T00:13:58.673Z,56.15
2019-06-07T00:19:15.690Z,56.30
2019-06-07T00:24:27.049Z,56.48
2019-06-07T00:29:40.731Z,56.63
2019-06-07T00:34:53.572Z,56.71
2019-06-07T00:40:14.159Z,56.73
2019-06-07T00:45:24.492Z,56.73
2019-06-07T00:50:36.883Z,56.84
2019-06-07T00:55:48.902Z,57.06
2019-06-07T01:01:06.064Z,57.41
2019-06-07T01:06:23.466Z,57.64
2019-06-07T01:11:35.830Z,57.80
2019-06-07T01:16:57.134Z,58.16
2019-06-07T01:22:06.077Z,58.10
2019-06-07T01:27:17.051Z,58.22
2019-06-07T01:32:32.151Z,58.44
2019-06-07T01:37:47.204Z,58.73
2019-06-07T01:42:59.411Z,58.78
2019-06-07T01:48:11.658Z,58.82
2019-06-07T01:53:45.339Z,58.86
2019-06-07T01:58:57.518Z,59.14
2019-06-07T02:04:09.462Z,59.09
2019-06-07T02:09:20.942Z,59.29
2019-06-07T02:14:33.716Z,59.19
2019-06-07T02:19:44.594Z,59.61
2019-06-07T02:25:34.433Z,59.61
2019-06-07T02:30:37.030Z,59.58
2019-06-07T02:35:34.753Z,59.65
2019-06-07T02:40:39.163Z,59.84
2019-06-07T02:45:54.946Z,59.58
2019-06-07T02:51:10.310Z,59.62
2019-06-07T02:56:53.939Z,59.42
2019-06-07T03:01:42.525Z,59.69
2019-06-07T03:06:59.828Z,59.65
2019-06-07T03:12:11.604Z,60.03
2019-06-07T03:17:50.044Z,59.85
2019-06-07T03:23:04.726Z,59.87
2019-06-07T03:28:18.970Z,59.80
2019-06-07T03:33:42.881Z,59.81
2019-06-07T03:38:57.674Z,59.79
2019-06-07T03:44:13.564Z,59.69
2019-06-07T03:49:31.525Z,59.69
2019-06-07T03:54:39.982Z,60.06
2019-06-07T04:00:02.578Z,59.64
2019-06-07T04:05:15.554Z,59.51
2019-06-07T04:10:52.052Z,59.66
2019-06-07T04:15:42.363Z,59.57
2019-06-07T04:21:03.962Z,59.76
2019-06-07T04:26:21.029Z,59.79
2019-06-07T04:31:32.182Z,59.58
2019-06-07T04:36:58.580Z,59.70
2019-06-07T04:42:10.058Z,59.34
2019-06-07T04:47:33.868Z,59.16
2019-06-07T04:52:45.533Z,59.08
2019-06-07T04:57:57.402Z,58.23
2019-06-07T05:03:09.594Z,58.10
2019-06-07T05:08:28.420Z,57.69
2019-06-07T05:13:44.004Z,57.15
2019-06-07T05:24:45.527Z,55.96
2019-06-07T05:30:09.615Z,55.69
2019-06-07T05:35:14.936Z,55.58
2019-06-07T05:40:38.785Z,54.55
2019-06-07T05:45:47.074Z,53.66
2019-06-07T05:51:05.050Z,53.49
2019-06-07T05:56:47.952Z,54.26
2019-06-07T06:02:26.364Z,53.92
2019-06-07T06:07:50.783Z,53.24
2019-06-07T06:13:03.512Z,53.11
2019-06-07T06:18:17.768Z,52.74
2019-06-07T06:23:28.082Z,51.58
2019-06-07T06:28:45.251Z,51.56
2019-06-07T06:33:54.896Z,50.60
2019-06-07T06:39:08.857Z,50.38
2019-06-07T06:44:24.199Z,50.39
2019-06-07T06:49:36.524Z,50.40
2019-06-07T06:55:00.066Z,50.08
2019-06-07T07:00:07.018Z,50.04
2019-06-07T07:05:22.974Z,49.63
2019-06-07T07:10:46.009Z,49.17
2019-06-07T07:15:58.652Z,48.88
2019-06-07T07:21:14.221Z,47.77
2019-06-07T07:26:30.695Z,47.56
2019-06-07T07:31:45.654Z,47.62
2019-06-07T07:36:59.733Z,46.27
2019-06-07T07:42:20.849Z,45.78
2019-06-07T07:47:25.822Z,46.04
2019-06-07T07:52:35.171Z,44.66
2019-06-07T07:57:58.142Z,45.30
2019-06-07T08:03:04.869Z,44.69
2019-06-07T08:08:21.772Z,43.57
2019-06-07T08:13:33.682Z,43.22
2019-06-07T08:18:45.747Z,42.92
2019-06-07T08:24:04.229Z,44.17
2019-06-07T08:29:16.101Z,43.95
2019-06-07T08:34:30.809Z,42.54
2019-06-07T08:39:43.715Z,42.22
2019-06-07T08:45:01.556Z,41.85
2019-06-07T08:50:11.208Z,41.21
2019-06-07T08:55:24.767Z,42.36
2019-06-07T09:00:47.041Z,42.37
2019-06-07T09:05:54.203Z,41.38
2019-06-07T09:11:10.977Z,39.40
2019-06-07T09:16:22.416Z,40.54
2019-06-07T09:21:39.629Z,40.31
2019-06-07T09:26:58.239Z,40.38
2019-06-07T09:32:17.867Z,38.59
2019-06-07T09:42:37.269Z,40.37
2019-06-07T09:47:48.106Z,39.69
2019-06-07T09:53:10.129Z,38.89
2019-06-07T10:03:36.737Z,38.21
2019-06-07T10:10:09.827Z,38.05
2019-06-07T10:14:58.702Z,38.29
2019-06-07T10:20:12.676Z,38.52
2019-06-07T10:25:29.729Z,38.20
2019-06-07T10:30:37.939Z,38.22
2019-06-07T10:35:53.392Z,37.41
2019-06-07T10:41:08.937Z,37.87
2019-06-07T10:46:18.149Z,37.63
2019-06-07T10:51:27.313Z,36.93
2019-06-07T10:56:38.329Z,36.71
2019-06-07T11:01:53.052Z,37.50
2019-06-07T11:07:04.375Z,36.72
2019-06-07T11:12:22.620Z,37.32
2019-06-07T11:17:35.054Z,36.53
2019-06-07T11:22:47.720Z,35.99
2019-06-07T11:28:01.717Z,35.74
2019-06-07T11:33:18.862Z,36.03
2019-06-07T11:38:29.200Z,36.13
2019-06-07T11:43:41.552Z,35.52
2019-06-07T11:49:01.583Z,34.67
2019-06-07T11:54:16.230Z,36.17
2019-06-07T11:59:31.191Z,34.87
2019-06-07T12:04:45.721Z,34.71
2019-06-07T12:09:57.016Z,35.72
2019-06-07T12:15:11.106Z,35.22
2019-06-07T12:20:30.066Z,35.34
2019-06-07T12:25:43.296Z,35.46
2019-06-07T12:30:56.745Z,34.42
2019-06-07T12:36:16.010Z,33.52
2019-06-07T12:41:33.483Z,34.06
2019-06-07T12:46:50.344Z,34.37
2019-06-07T12:52:07.390Z,34.01
2019-06-07T12:57:18.044Z,35.26
2019-06-07T13:02:29.082Z,35.14
2019-06-07T13:07:46.568Z,34.55
2019-06-07T13:13:03.152Z,34.64
2019-06-07T13:18:19.274Z,34.04
2019-06-07T13:23:33.556Z,33.00
2019-06-07T13:28:49.519Z,32.89
2019-06-07T13:34:06.663Z,33.95
2019-06-07T13:39:25.900Z,33.97
2019-06-07T13:44:35.398Z,33.93
2019-06-07T13:49:46.203Z,33.56
2019-06-07T13:55:17.871Z,33.08
2019-06-07T14:00:45.031Z,34.20
2019-06-07T14:05:56.653Z,34.75
2019-06-07T14:11:11.632Z,34.67
2019-06-07T14:16:24.263Z,35.78
2019-06-07T14:21:39.571Z,35.59
2019-06-07T14:27:09.963Z,36.19
2019-06-07T14:32:26.617Z,36.39
2019-06-07T14:37:43.327Z,36.10
2019-06-07T14:42:57.909Z,35.55
2019-06-07T14:48:06.127Z,34.48
2019-06-07T14:53:13.463Z,34.77
2019-06-07T14:58:21.978Z,34.94
2019-06-07T15:03:35.181Z,34.51
2019-06-07T15:08:51.349Z,33.43
2019-06-07T15:14:04.993Z,33.72
2019-06-07T15:19:19.613Z,35.21
2019-06-07T15:24:38.923Z,35.86
2019-06-07T15:29:50.862Z,35.83
2019-06-07T15:35:05.451Z,36.01
2019-06-07T15:40:18.692Z,34.91
2019-06-07T15:45:35.569Z,35.27
2019-06-07T15:50:46.142Z,35.55
2019-06-07T15:55:58.799Z,35.56
2019-06-07T16:01:06.383Z,35.72
2019-06-07T16:06:19.356Z,36.63
2019-06-07T16:11:27.489Z,38.24
2019-06-07T16:16:37.052Z,39.13
2019-06-07T16:21:46.085Z,39.81
2019-06-07T16:27:02.017Z,40.48
2019-06-07T16:32:14.439Z,41.59
2019-06-07T16:37:24.359Z,41.42
2019-06-07T16:42:38.363Z,41.59
2019-06-07T16:47:49.707Z,41.33
2019-06-07T16:53:05.862Z,40.73
2019-06-07T16:58:19.043Z,40.09
2019-06-07T17:03:28.589Z,40.25
2019-06-07T17:08:39.995Z,40.02
2019-06-07T17:13:51.905Z,40.32
2019-06-07T17:19:01.665Z,41.27
2019-06-07T17:24:14.249Z,43.22
2019-06-07T17:29:26.946Z,45.62
2019-06-07T17:34:39.888Z,47.09
2019-06-07T17:39:50.882Z,47.80
2019-06-07T17:44:57.519Z,47.40
2019-06-07T17:50:10.052Z,48.04
2019-06-07T17:55:22.269Z,47.73
2019-06-07T18:00:47.234Z,48.06
2019-06-07T18:06:18.987Z,47.51
2019-06-07T18:11:28.783Z,47.64
2019-06-07T18:16:44.269Z,47.08
2019-06-07T18:21:57.544Z,46.75
2019-06-07T18:27:12.130Z,47.10
2019-06-07T18:32:20.015Z,47.02
2019-06-07T18:37:31.715Z,46.62
2019-06-07T18:42:38.730Z,46.49
2019-06-07T18:47:51.486Z,46.27
2019-06-07T18:53:04.038Z,46.51
2019-06-07T18:58:16.847Z,46.58
2019-06-07T19:03:30.147Z,46.71
2019-06-07T19:08:43.238Z,46.68
2019-06-07T19:13:53.350Z,46.38
2019-06-07T19:19:11.468Z,46.36
2019-06-07T19:24:31.909Z,46.63
2019-06-07T19:29:43.864Z,46.35
2019-06-07T19:35:01.675Z,45.64
2019-06-07T19:40:14.943Z,45.71
2019-06-07T19:45:30.976Z,45.35
2019-06-07T19:50:38.025Z,45.15
2019-06-07T19:55:53.035Z,44.60
2019-06-07T20:01:16.710Z,43.66
2019-06-07T20:06:25.611Z,44.76
2019-06-07T20:11:41.006Z,45.00
2019-06-07T20:17:10.471Z,45.32
2019-06-07T20:22:22.894Z,45.29
2019-06-07T20:27:35.715Z,45.39
2019-06-07T20:32:49.730Z,45.75
2019-06-07T20:38:14.159Z,45.88
2019-06-07T20:43:29.910Z,45.54
2019-06-07T20:48:44.905Z,45.75
2019-06-07T20:53:58.925Z,45.91
2019-06-07T20:59:10.349Z,45.26
2019-06-07T21:04:24.423Z,45.79
2019-06-07T21:09:34.318Z,45.89
2019-06-07T21:14:44.940Z,45.88
2019-06-07T21:19:58.507Z,45.89
2019-06-07T21:25:13.298Z,46.24
2019-06-07T21:30:21.097Z,46.51
2019-06-07T21:35:35.171Z,46.64
2019-06-07T21:40:47.296Z,46.72
2019-06-07T21:46:04.790Z,46.69
2019-06-07T21:51:13.176Z,46.66
2019-06-07T21:56:26.985Z,46.69
2019-06-07T22:01:42.909Z,46.73
2019-06-07T22:06:57.156Z,46.61
2019-06-07T22:12:04.489Z,46.90
2019-06-07T22:17:16.009Z,46.64
2019-06-07T22:22:25.420Z,46.40
2019-06-07T22:27:37.962Z,46.45
2019-06-07T22:32:49.907Z,46.32
2019-06-07T22:38:12.151Z,45.86
2019-06-07T22:43:19.847Z,45.62
2019-06-07T22:48:30.697Z,45.40
2019-06-07T22:53:45.480Z,45.28
2019-06-07T22:58:59.047Z,45.22
2019-06-07T23:04:12.527Z,45.46
2019-06-07T23:09:28.389Z,45.48
2019-06-07T23:14:36.445Z,45.70
2019-06-07T23:19:50.313Z,46.00
2019-06-07T23:25:00.627Z,46.24
2019-06-07T23:30:14.472Z,46.35
2019-06-07T23:35:22.772Z,46.35
2019-06-07T23:40:31.113Z,46.34
2019-06-07T23:45:40.515Z,46.49
2019-06-07T23:50:54.800Z,46.60
2019-06-07T23:56:09.028Z,46.73
